sensor_id;sensor_type;location;lat;lon;timestamp;temperature;humidity
1385;DHT22;686;51.080;13.716;2022-08-19T00:00:05;22.60;99.90
1385;DHT22;686;51.080;13.716;2022-08-19T00:02:33;22.60;99.90
1385;DHT22;686;51.080;13.716;2022-08-19T00:04:59;22.60;99.90
1385;DHT22;686;51.080;13.716;2022-08-19T00:07:25;22.60;99.90
1385;DHT22;686;51.080;13.716;2022-08-19T00:09:50;22.50;99.90
1385;DHT22;686;51.080;13.716;2022-08-19T00:12:16;22.50;99.90
1385;DHT22;686;51.080;13.716;2022-08-19T00:14:42;22.60;99.90
1385;DHT22;686;51.080;13.716;2022-08-19T00:17:08;22.60;99.90
1385;DHT22;686;51.080;13.716;2022-08-19T00:19:35;22.60;99.90
1385;DHT22;686;51.080;13.716;2022-08-19T00:22:01;22.50;99.90
1385;DHT22;686;51.080;13.716;2022-08-19T00:24:28;22.50;99.90
1385;DHT22;686;51.080;13.716;2022-08-19T00:26:55;22.40;99.90
1385;DHT22;686;51.080;13.716;2022-08-19T00:29:23;22.40;99.90
1385;DHT22;686;51.080;13.716;2022-08-19T00:31:50;22.40;99.90
1385;DHT22;686;51.080;13.716;2022-08-19T00:34:18;22.40;99.90
1385;DHT22;686;51.080;13.716;2022-08-19T00:36:45;22.40;99.90
1385;DHT22;686;51.080;13.716;2022-08-19T00:39:11;22.50;99.90
1385;DHT22;686;51.080;13.716;2022-08-19T00:41:37;22.30;99.90
1385;DHT22;686;51.080;13.716;2022-08-19T00:44:11;22.30;99.90
1385;DHT22;686;51.080;13.716;2022-08-19T00:46:40;22.20;99.90
1385;DHT22;686;51.080;13.716;2022-08-19T00:49:17;22.20;99.90
1385;DHT22;686;51.080;13.716;2022-08-19T00:51:47;22.20;99.90
1385;DHT22;686;51.080;13.716;2022-08-19T00:54:14;22.20;99.90
1385;DHT22;686;51.080;13.716;2022-08-19T00:56:40;22.30;99.90
1385;DHT22;686;51.080;13.716;2022-08-19T00:59:06;22.30;99.90
1385;DHT22;686;51.080;13.716;2022-08-19T01:01:41;22.30;99.90
1385;DHT22;686;51.080;13.716;2022-08-19T01:04:07;22.20;99.90
1385;DHT22;686;51.080;13.716;2022-08-19T01:06:35;22.20;99.90
1385;DHT22;686;51.080;13.716;2022-08-19T01:09:01;22.10;99.90
1385;DHT22;686;51.080;13.716;2022-08-19T01:11:28;22.10;99.90
1385;DHT22;686;51.080;13.716;2022-08-19T01:13:55;22.20;99.90
1385;DHT22;686;51.080;13.716;2022-08-19T01:16:23;22.10;99.90
1385;DHT22;686;51.080;13.716;2022-08-19T01:18:50;22.10;99.90
1385;DHT22;686;51.080;13.716;2022-08-19T01:23:56;22.20;99.90
1385;DHT22;686;51.080;13.716;2022-08-19T01:26:24;22.00;99.90
1385;DHT22;686;51.080;13.716;2022-08-19T01:28:53;22.10;99.90
1385;DHT22;686;51.080;13.716;2022-08-19T01:31:23;22.00;99.90
1385;DHT22;686;51.080;13.716;2022-08-19T01:33:52;22.00;99.90
1385;DHT22;686;51.080;13.716;2022-08-19T01:36:26;22.00;99.90
1385;DHT22;686;51.080;13.716;2022-08-19T01:38:55;22.00;99.90
1385;DHT22;686;51.080;13.716;2022-08-19T01:41:21;21.90;99.90
1385;DHT22;686;51.080;13.716;2022-08-19T01:43:49;22.00;99.90
1385;DHT22;686;51.080;13.716;2022-08-19T01:46:16;22.00;99.90
1385;DHT22;686;51.080;13.716;2022-08-19T01:48:43;22.00;99.90
1385;DHT22;686;51.080;13.716;2022-08-19T01:51:11;21.90;99.90
1385;DHT22;686;51.080;13.716;2022-08-19T01:53:37;22.00;99.90
1385;DHT22;686;51.080;13.716;2022-08-19T01:56:04;22.00;99.90
1385;DHT22;686;51.080;13.716;2022-08-19T01:58:35;22.00;99.90
1385;DHT22;686;51.080;13.716;2022-08-19T02:01:03;22.10;99.90
1385;DHT22;686;51.080;13.716;2022-08-19T02:03:29;22.10;99.90
1385;DHT22;686;51.080;13.716;2022-08-19T02:06:00;22.10;99.90
1385;DHT22;686;51.080;13.716;2022-08-19T02:08:29;22.10;99.90
1385;DHT22;686;51.080;13.716;2022-08-19T02:10:55;22.20;99.90
1385;DHT22;686;51.080;13.716;2022-08-19T02:13:22;22.10;99.90
1385;DHT22;686;51.080;13.716;2022-08-19T02:15:48;22.10;99.90
1385;DHT22;686;51.080;13.716;2022-08-19T02:18:15;22.10;99.90
1385;DHT22;686;51.080;13.716;2022-08-19T02:20:42;22.00;99.90
1385;DHT22;686;51.080;13.716;2022-08-19T02:23:10;21.90;99.90
1385;DHT22;686;51.080;13.716;2022-08-19T02:25:36;22.00;99.90
1385;DHT22;686;51.080;13.716;2022-08-19T02:28:02;21.90;99.90
1385;DHT22;686;51.080;13.716;2022-08-19T02:30:28;22.10;99.90
1385;DHT22;686;51.080;13.716;2022-08-19T02:32:54;22.10;99.90
1385;DHT22;686;51.080;13.716;2022-08-19T02:35:20;22.10;99.90
1385;DHT22;686;51.080;13.716;2022-08-19T02:37:47;22.20;99.90
1385;DHT22;686;51.080;13.716;2022-08-19T02:40:32;22.30;99.90
1385;DHT22;686;51.080;13.716;2022-08-19T02:43:02;22.30;99.90
1385;DHT22;686;51.080;13.716;2022-08-19T02:45:33;22.30;99.90
1385;DHT22;686;51.080;13.716;2022-08-19T02:47:58;22.30;99.90
1385;DHT22;686;51.080;13.716;2022-08-19T02:50:24;22.30;99.90
1385;DHT22;686;51.080;13.716;2022-08-19T02:52:51;22.30;99.90
1385;DHT22;686;51.080;13.716;2022-08-19T02:55:16;22.20;99.90
1385;DHT22;686;51.080;13.716;2022-08-19T02:57:42;22.10;99.90
1385;DHT22;686;51.080;13.716;2022-08-19T03:00:08;22.20;99.90
1385;DHT22;686;51.080;13.716;2022-08-19T03:02:38;22.20;99.90
1385;DHT22;686;51.080;13.716;2022-08-19T03:05:05;22.20;99.90
1385;DHT22;686;51.080;13.716;2022-08-19T03:07:30;22.10;99.90
1385;DHT22;686;51.080;13.716;2022-08-19T03:09:56;22.20;99.90
1385;DHT22;686;51.080;13.716;2022-08-19T03:12:22;22.20;99.90
1385;DHT22;686;51.080;13.716;2022-08-19T03:14:48;22.30;99.90
1385;DHT22;686;51.080;13.716;2022-08-19T03:17:13;22.20;99.90
1385;DHT22;686;51.080;13.716;2022-08-19T03:19:39;22.20;99.90
1385;DHT22;686;51.080;13.716;2022-08-19T03:22:05;22.20;99.90
1385;DHT22;686;51.080;13.716;2022-08-19T03:24:31;22.20;99.90
1385;DHT22;686;51.080;13.716;2022-08-19T03:26:57;22.20;99.90
1385;DHT22;686;51.080;13.716;2022-08-19T03:29:26;22.10;99.90
1385;DHT22;686;51.080;13.716;2022-08-19T03:31:53;22.20;99.90
1385;DHT22;686;51.080;13.716;2022-08-19T03:34:23;22.20;99.90
1385;DHT22;686;51.080;13.716;2022-08-19T03:36:52;22.20;99.90
1385;DHT22;686;51.080;13.716;2022-08-19T03:39:20;22.00;99.90
1385;DHT22;686;51.080;13.716;2022-08-19T03:41:48;22.10;99.90
1385;DHT22;686;51.080;13.716;2022-08-19T03:44:18;22.10;99.90
1385;DHT22;686;51.080;13.716;2022-08-19T03:46:54;22.30;99.90
1385;DHT22;686;51.080;13.716;2022-08-19T03:49:27;22.20;99.90
1385;DHT22;686;51.080;13.716;2022-08-19T03:51:55;22.20;99.90
1385;DHT22;686;51.080;13.716;2022-08-19T03:54:24;22.30;99.90
1385;DHT22;686;51.080;13.716;2022-08-19T03:56:52;22.30;99.90
1385;DHT22;686;51.080;13.716;2022-08-19T03:59:31;22.20;99.90
1385;DHT22;686;51.080;13.716;2022-08-19T04:01:59;22.20;99.90
1385;DHT22;686;51.080;13.716;2022-08-19T04:04:25;22.30;99.90
1385;DHT22;686;51.080;13.716;2022-08-19T04:06:52;22.20;99.90
1385;DHT22;686;51.080;13.716;2022-08-19T04:09:18;22.30;99.90
1385;DHT22;686;51.080;13.716;2022-08-19T04:11:50;22.20;99.90
1385;DHT22;686;51.080;13.716;2022-08-19T04:14:21;22.20;99.90
1385;DHT22;686;51.080;13.716;2022-08-19T04:16:48;22.20;99.90
1385;DHT22;686;51.080;13.716;2022-08-19T04:19:16;22.20;99.90
1385;DHT22;686;51.080;13.716;2022-08-19T04:21:45;22.10;99.90
1385;DHT22;686;51.080;13.716;2022-08-19T04:24:12;22.10;99.90
1385;DHT22;686;51.080;13.716;2022-08-19T04:26:38;22.10;99.90
1385;DHT22;686;51.080;13.716;2022-08-19T04:29:16;22.10;99.90
1385;DHT22;686;51.080;13.716;2022-08-19T04:31:43;22.20;99.90
1385;DHT22;686;51.080;13.716;2022-08-19T04:34:13;22.20;99.90
1385;DHT22;686;51.080;13.716;2022-08-19T04:36:41;22.20;99.90
1385;DHT22;686;51.080;13.716;2022-08-19T04:39:16;22.20;99.90
1385;DHT22;686;51.080;13.716;2022-08-19T04:41:43;22.20;99.90
1385;DHT22;686;51.080;13.716;2022-08-19T04:44:28;22.20;99.90
1385;DHT22;686;51.080;13.716;2022-08-19T04:46:56;22.20;99.90
1385;DHT22;686;51.080;13.716;2022-08-19T04:49:22;22.30;99.90
1385;DHT22;686;51.080;13.716;2022-08-19T04:51:50;22.20;99.90
1385;DHT22;686;51.080;13.716;2022-08-19T04:54:17;22.20;99.90
1385;DHT22;686;51.080;13.716;2022-08-19T04:56:44;22.10;99.90
1385;DHT22;686;51.080;13.716;2022-08-19T04:59:10;22.10;99.90
1385;DHT22;686;51.080;13.716;2022-08-19T05:01:36;22.10;99.90
1385;DHT22;686;51.080;13.716;2022-08-19T05:04:05;22.20;99.90
1385;DHT22;686;51.080;13.716;2022-08-19T05:06:34;22.20;99.90
1385;DHT22;686;51.080;13.716;2022-08-19T05:09:04;22.20;99.90
1385;DHT22;686;51.080;13.716;2022-08-19T05:11:33;22.20;99.90
1385;DHT22;686;51.080;13.716;2022-08-19T05:14:00;22.20;99.90
1385;DHT22;686;51.080;13.716;2022-08-19T05:16:26;22.10;99.90
1385;DHT22;686;51.080;13.716;2022-08-19T05:18:52;22.00;99.90
1385;DHT22;686;51.080;13.716;2022-08-19T05:21:38;21.90;99.90
1385;DHT22;686;51.080;13.716;2022-08-19T05:24:23;21.80;99.90
1385;DHT22;686;51.080;13.716;2022-08-19T05:26:52;21.80;99.90
1385;DHT22;686;51.080;13.716;2022-08-19T05:29:20;21.80;99.90
1385;DHT22;686;51.080;13.716;2022-08-19T05:31:48;21.80;99.90
1385;DHT22;686;51.080;13.716;2022-08-19T05:34:17;21.90;99.90
1385;DHT22;686;51.080;13.716;2022-08-19T05:36:48;21.90;99.90
1385;DHT22;686;51.080;13.716;2022-08-19T05:39:17;21.80;99.90
1385;DHT22;686;51.080;13.716;2022-08-19T05:41:45;21.70;99.90
1385;DHT22;686;51.080;13.716;2022-08-19T05:44:12;21.80;99.90
1385;DHT22;686;51.080;13.716;2022-08-19T05:46:42;21.80;99.90
1385;DHT22;686;51.080;13.716;2022-08-19T05:49:08;21.80;99.90
1385;DHT22;686;51.080;13.716;2022-08-19T05:51:36;21.80;99.90
1385;DHT22;686;51.080;13.716;2022-08-19T05:54:04;21.80;99.90
1385;DHT22;686;51.080;13.716;2022-08-19T05:56:31;21.90;99.90
1385;DHT22;686;51.080;13.716;2022-08-19T05:58:57;21.90;99.90
1385;DHT22;686;51.080;13.716;2022-08-19T06:01:25;21.90;99.90
1385;DHT22;686;51.080;13.716;2022-08-19T06:03:51;21.90;99.90
1385;DHT22;686;51.080;13.716;2022-08-19T06:06:18;21.90;99.90
1385;DHT22;686;51.080;13.716;2022-08-19T06:08:45;21.90;99.90
1385;DHT22;686;51.080;13.716;2022-08-19T06:11:28;21.90;99.90
1385;DHT22;686;51.080;13.716;2022-08-19T06:14:08;22.00;99.90
1385;DHT22;686;51.080;13.716;2022-08-19T06:16:41;22.00;99.90
1385;DHT22;686;51.080;13.716;2022-08-19T06:19:11;21.90;99.90
1385;DHT22;686;51.080;13.716;2022-08-19T06:21:39;22.00;99.90
1385;DHT22;686;51.080;13.716;2022-08-19T06:24:07;22.00;99.90
1385;DHT22;686;51.080;13.716;2022-08-19T06:26:35;22.00;99.90
1385;DHT22;686;51.080;13.716;2022-08-19T06:29:04;22.00;99.90
1385;DHT22;686;51.080;13.716;2022-08-19T06:31:32;22.00;99.90
1385;DHT22;686;51.080;13.716;2022-08-19T06:34:00;21.90;99.90
1385;DHT22;686;51.080;13.716;2022-08-19T06:36:33;21.90;99.90
1385;DHT22;686;51.080;13.716;2022-08-19T06:39:02;21.90;99.90
1385;DHT22;686;51.080;13.716;2022-08-19T06:41:29;21.90;99.90
1385;DHT22;686;51.080;13.716;2022-08-19T06:43:55;21.90;99.90
1385;DHT22;686;51.080;13.716;2022-08-19T06:46:22;21.90;99.90
1385;DHT22;686;51.080;13.716;2022-08-19T06:48:48;21.90;99.90
1385;DHT22;686;51.080;13.716;2022-08-19T06:51:16;22.00;99.90
1385;DHT22;686;51.080;13.716;2022-08-19T06:53:45;22.00;99.90
1385;DHT22;686;51.080;13.716;2022-08-19T06:56:17;22.00;99.90
1385;DHT22;686;51.080;13.716;2022-08-19T06:58:43;22.00;99.90
1385;DHT22;686;51.080;13.716;2022-08-19T07:01:10;22.00;99.90
1385;DHT22;686;51.080;13.716;2022-08-19T07:03:37;22.00;99.90
1385;DHT22;686;51.080;13.716;2022-08-19T07:06:06;21.80;99.90
1385;DHT22;686;51.080;13.716;2022-08-19T07:08:33;21.80;99.90
1385;DHT22;686;51.080;13.716;2022-08-19T07:10:59;21.70;99.90
1385;DHT22;686;51.080;13.716;2022-08-19T07:13:25;21.80;99.90
1385;DHT22;686;51.080;13.716;2022-08-19T07:15:51;21.70;99.90
1385;DHT22;686;51.080;13.716;2022-08-19T07:18:19;21.70;99.90
1385;DHT22;686;51.080;13.716;2022-08-19T07:20:46;21.70;99.90
1385;DHT22;686;51.080;13.716;2022-08-19T07:23:12;21.70;99.90
1385;DHT22;686;51.080;13.716;2022-08-19T07:25:38;21.70;99.90
1385;DHT22;686;51.080;13.716;2022-08-19T07:28:04;21.70;99.90
1385;DHT22;686;51.080;13.716;2022-08-19T07:30:31;21.70;99.90
1385;DHT22;686;51.080;13.716;2022-08-19T07:32:56;21.70;99.90
1385;DHT22;686;51.080;13.716;2022-08-19T07:35:22;21.60;99.90
1385;DHT22;686;51.080;13.716;2022-08-19T07:37:49;21.60;99.90
1385;DHT22;686;51.080;13.716;2022-08-19T07:40:15;21.60;99.90
1385;DHT22;686;51.080;13.716;2022-08-19T07:42:42;21.50;99.90
1385;DHT22;686;51.080;13.716;2022-08-19T07:45:09;21.60;99.90
1385;DHT22;686;51.080;13.716;2022-08-19T07:47:35;21.60;99.90
1385;DHT22;686;51.080;13.716;2022-08-19T07:50:01;21.60;99.90
1385;DHT22;686;51.080;13.716;2022-08-19T07:52:29;21.60;99.90
1385;DHT22;686;51.080;13.716;2022-08-19T07:54:55;21.60;99.90
1385;DHT22;686;51.080;13.716;2022-08-19T07:57:21;21.70;99.90
1385;DHT22;686;51.080;13.716;2022-08-19T07:59:47;21.50;99.90
1385;DHT22;686;51.080;13.716;2022-08-19T08:02:12;21.50;99.90
1385;DHT22;686;51.080;13.716;2022-08-19T08:04:38;21.30;99.90
1385;DHT22;686;51.080;13.716;2022-08-19T08:07:22;21.20;99.90
1385;DHT22;686;51.080;13.716;2022-08-19T08:10:07;21.20;99.90
1385;DHT22;686;51.080;13.716;2022-08-19T08:12:39;21.30;99.90
1385;DHT22;686;51.080;13.716;2022-08-19T08:15:11;21.30;99.90
1385;DHT22;686;51.080;13.716;2022-08-19T08:17:40;21.20;99.90
1385;DHT22;686;51.080;13.716;2022-08-19T08:20:06;21.30;99.90
1385;DHT22;686;51.080;13.716;2022-08-19T08:22:32;21.20;99.90
1385;DHT22;686;51.080;13.716;2022-08-19T08:25:20;21.20;99.90
1385;DHT22;686;51.080;13.716;2022-08-19T08:27:46;21.40;99.90
1385;DHT22;686;51.080;13.716;2022-08-19T08:30:21;21.40;99.90
1385;DHT22;686;51.080;13.716;2022-08-19T08:32:47;21.60;99.90
1385;DHT22;686;51.080;13.716;2022-08-19T08:35:16;21.60;99.90
1385;DHT22;686;51.080;13.716;2022-08-19T08:37:44;21.70;99.90
1385;DHT22;686;51.080;13.716;2022-08-19T08:40:22;21.60;99.90
1385;DHT22;686;51.080;13.716;2022-08-19T08:45:28;21.90;99.90
1385;DHT22;686;51.080;13.716;2022-08-19T08:47:57;21.90;99.90
1385;DHT22;686;51.080;13.716;2022-08-19T08:50:38;21.90;99.90
1385;DHT22;686;51.080;13.716;2022-08-19T08:53:06;22.00;99.90
1385;DHT22;686;51.080;13.716;2022-08-19T08:55:34;22.00;99.90
1385;DHT22;686;51.080;13.716;2022-08-19T08:58:31;22.10;99.90
1385;DHT22;686;51.080;13.716;2022-08-19T09:01:09;22.10;99.90
1385;DHT22;686;51.080;13.716;2022-08-19T09:03:37;22.10;99.90
1385;DHT22;686;51.080;13.716;2022-08-19T09:06:11;22.00;99.90
1385;DHT22;686;51.080;13.716;2022-08-19T09:12:02;22.20;99.90
1385;DHT22;686;51.080;13.716;2022-08-19T09:14:38;22.10;99.90
1385;DHT22;686;51.080;13.716;2022-08-19T09:17:08;22.30;99.90
1385;DHT22;686;51.080;13.716;2022-08-19T09:19:59;22.30;99.90
1385;DHT22;686;51.080;13.716;2022-08-19T09:22:30;22.30;99.90
1385;DHT22;686;51.080;13.716;2022-08-19T09:24:56;22.30;99.90
1385;DHT22;686;51.080;13.716;2022-08-19T09:27:23;22.30;99.90
1385;DHT22;686;51.080;13.716;2022-08-19T09:29:52;22.30;99.90
1385;DHT22;686;51.080;13.716;2022-08-19T09:32:19;22.30;99.90
1385;DHT22;686;51.080;13.716;2022-08-19T09:34:45;22.60;99.90
1385;DHT22;686;51.080;13.716;2022-08-19T09:37:11;22.70;99.90
1385;DHT22;686;51.080;13.716;2022-08-19T09:39:38;22.70;99.90
1385;DHT22;686;51.080;13.716;2022-08-19T09:42:07;22.70;99.90
1385;DHT22;686;51.080;13.716;2022-08-19T09:44:38;22.70;99.90
1385;DHT22;686;51.080;13.716;2022-08-19T09:47:04;22.80;99.90
1385;DHT22;686;51.080;13.716;2022-08-19T09:49:30;22.80;99.90
1385;DHT22;686;51.080;13.716;2022-08-19T09:51:57;22.90;99.90
1385;DHT22;686;51.080;13.716;2022-08-19T09:54:23;22.80;99.90
1385;DHT22;686;51.080;13.716;2022-08-19T09:56:50;22.90;99.90
1385;DHT22;686;51.080;13.716;2022-08-19T09:59:15;22.70;99.90
1385;DHT22;686;51.080;13.716;2022-08-19T10:01:41;22.50;99.90
1385;DHT22;686;51.080;13.716;2022-08-19T10:04:07;22.60;99.90
1385;DHT22;686;51.080;13.716;2022-08-19T10:06:36;22.60;99.90
1385;DHT22;686;51.080;13.716;2022-08-19T10:09:04;22.70;99.90
1385;DHT22;686;51.080;13.716;2022-08-19T10:11:32;22.80;99.90
1385;DHT22;686;51.080;13.716;2022-08-19T10:13:58;22.80;99.90
1385;DHT22;686;51.080;13.716;2022-08-19T10:16:25;22.90;99.90
1385;DHT22;686;51.080;13.716;2022-08-19T10:18:52;23.00;99.90
1385;DHT22;686;51.080;13.716;2022-08-19T10:21:21;22.90;99.90
1385;DHT22;686;51.080;13.716;2022-08-19T10:23:51;23.00;99.90
1385;DHT22;686;51.080;13.716;2022-08-19T10:26:20;23.10;99.90
1385;DHT22;686;51.080;13.716;2022-08-19T10:28:53;23.20;99.90
1385;DHT22;686;51.080;13.716;2022-08-19T10:32:28;23.30;99.90
1385;DHT22;686;51.080;13.716;2022-08-19T10:34:55;23.40;99.90
1385;DHT22;686;51.080;13.716;2022-08-19T10:37:21;23.40;99.90
1385;DHT22;686;51.080;13.716;2022-08-19T10:39:47;23.60;99.90
1385;DHT22;686;51.080;13.716;2022-08-19T10:42:13;23.60;99.90
1385;DHT22;686;51.080;13.716;2022-08-19T10:44:39;23.70;99.90
1385;DHT22;686;51.080;13.716;2022-08-19T10:47:10;24.10;99.90
1385;DHT22;686;51.080;13.716;2022-08-19T10:49:36;24.40;99.90
1385;DHT22;686;51.080;13.716;2022-08-19T10:52:21;24.20;99.90
1385;DHT22;686;51.080;13.716;2022-08-19T10:55:06;24.00;99.90
1385;DHT22;686;51.080;13.716;2022-08-19T10:57:51;24.00;99.90
1385;DHT22;686;51.080;13.716;2022-08-19T11:00:20;24.20;99.90
1385;DHT22;686;51.080;13.716;2022-08-19T11:02:46;24.60;99.90
1385;DHT22;686;51.080;13.716;2022-08-19T11:05:12;24.60;99.90
1385;DHT22;686;51.080;13.716;2022-08-19T11:07:40;24.60;99.90
1385;DHT22;686;51.080;13.716;2022-08-19T11:10:08;24.50;99.90
1385;DHT22;686;51.080;13.716;2022-08-19T11:12:37;24.30;99.90
1385;DHT22;686;51.080;13.716;2022-08-19T11:15:06;24.30;99.90
1385;DHT22;686;51.080;13.716;2022-08-19T11:17:33;24.20;99.90
1385;DHT22;686;51.080;13.716;2022-08-19T11:19:59;23.80;99.90
1385;DHT22;686;51.080;13.716;2022-08-19T11:22:28;23.60;99.90
1385;DHT22;686;51.080;13.716;2022-08-19T11:24:54;23.50;99.90
1385;DHT22;686;51.080;13.716;2022-08-19T11:27:22;23.50;99.90
1385;DHT22;686;51.080;13.716;2022-08-19T11:29:47;23.60;99.90
1385;DHT22;686;51.080;13.716;2022-08-19T11:32:13;23.80;99.90
1385;DHT22;686;51.080;13.716;2022-08-19T11:34:40;23.90;99.90
1385;DHT22;686;51.080;13.716;2022-08-19T11:37:07;24.00;99.90
1385;DHT22;686;51.080;13.716;2022-08-19T11:39:35;24.00;99.90
1385;DHT22;686;51.080;13.716;2022-08-19T11:42:03;23.90;99.90
1385;DHT22;686;51.080;13.716;2022-08-19T11:44:53;24.00;99.90
1385;DHT22;686;51.080;13.716;2022-08-19T11:47:19;24.00;99.90
1385;DHT22;686;51.080;13.716;2022-08-19T11:49:46;24.00;99.90
1385;DHT22;686;51.080;13.716;2022-08-19T11:52:12;24.10;99.90
1385;DHT22;686;51.080;13.716;2022-08-19T11:54:38;24.30;99.90
1385;DHT22;686;51.080;13.716;2022-08-19T11:57:04;24.30;99.90
1385;DHT22;686;51.080;13.716;2022-08-19T11:59:29;24.20;99.90
1385;DHT22;686;51.080;13.716;2022-08-19T12:01:55;24.10;99.90
1385;DHT22;686;51.080;13.716;2022-08-19T12:04:22;23.80;99.90
1385;DHT22;686;51.080;13.716;2022-08-19T12:06:48;23.60;99.90
1385;DHT22;686;51.080;13.716;2022-08-19T12:09:15;23.60;99.90
1385;DHT22;686;51.080;13.716;2022-08-19T12:11:41;23.60;99.90
1385;DHT22;686;51.080;13.716;2022-08-19T12:14:11;23.60;99.90
1385;DHT22;686;51.080;13.716;2022-08-19T12:16:37;23.60;99.90
1385;DHT22;686;51.080;13.716;2022-08-19T12:19:04;23.70;99.90
1385;DHT22;686;51.080;13.716;2022-08-19T12:21:32;23.80;99.90
1385;DHT22;686;51.080;13.716;2022-08-19T12:23:59;23.90;99.90
1385;DHT22;686;51.080;13.716;2022-08-19T12:26:27;23.80;99.90
1385;DHT22;686;51.080;13.716;2022-08-19T12:28:53;23.60;99.90
1385;DHT22;686;51.080;13.716;2022-08-19T12:31:19;23.60;99.90
1385;DHT22;686;51.080;13.716;2022-08-19T12:33:45;23.50;99.90
1385;DHT22;686;51.080;13.716;2022-08-19T12:36:14;23.50;99.90
1385;DHT22;686;51.080;13.716;2022-08-19T12:38:43;23.50;99.90
1385;DHT22;686;51.080;13.716;2022-08-19T12:41:12;23.40;99.90
1385;DHT22;686;51.080;13.716;2022-08-19T12:43:38;23.40;99.90
1385;DHT22;686;51.080;13.716;2022-08-19T12:46:14;23.40;99.90
1385;DHT22;686;51.080;13.716;2022-08-19T12:48:40;23.60;99.90
1385;DHT22;686;51.080;13.716;2022-08-19T12:51:10;23.60;99.90
1385;DHT22;686;51.080;13.716;2022-08-19T12:53:36;23.50;99.90
1385;DHT22;686;51.080;13.716;2022-08-19T12:56:03;23.50;99.90
1385;DHT22;686;51.080;13.716;2022-08-19T12:58:29;23.50;99.90
1385;DHT22;686;51.080;13.716;2022-08-19T13:00:55;23.40;99.90
1385;DHT22;686;51.080;13.716;2022-08-19T13:03:20;23.40;99.90
1385;DHT22;686;51.080;13.716;2022-08-19T13:05:50;23.50;99.90
1385;DHT22;686;51.080;13.716;2022-08-19T13:08:16;23.60;99.90
1385;DHT22;686;51.080;13.716;2022-08-19T13:10:42;23.60;99.90
1385;DHT22;686;51.080;13.716;2022-08-19T13:13:08;23.60;99.90
1385;DHT22;686;51.080;13.716;2022-08-19T13:15:37;23.50;99.90
1385;DHT22;686;51.080;13.716;2022-08-19T13:18:05;23.40;99.90
1385;DHT22;686;51.080;13.716;2022-08-19T13:20:31;23.30;99.90
1385;DHT22;686;51.080;13.716;2022-08-19T13:22:57;23.10;99.90
1385;DHT22;686;51.080;13.716;2022-08-19T13:25:23;23.10;99.90
1385;DHT22;686;51.080;13.716;2022-08-19T13:27:51;23.00;99.90
1385;DHT22;686;51.080;13.716;2022-08-19T13:30:18;23.00;99.90
1385;DHT22;686;51.080;13.716;2022-08-19T13:33:03;23.10;99.90
1385;DHT22;686;51.080;13.716;2022-08-19T13:35:46;23.10;99.90
1385;DHT22;686;51.080;13.716;2022-08-19T13:38:13;23.20;99.90
1385;DHT22;686;51.080;13.716;2022-08-19T13:40:40;23.10;99.90
1385;DHT22;686;51.080;13.716;2022-08-19T13:43:06;23.10;99.90
1385;DHT22;686;51.080;13.716;2022-08-19T13:45:33;23.20;99.90
1385;DHT22;686;51.080;13.716;2022-08-19T13:48:00;23.20;99.90
1385;DHT22;686;51.080;13.716;2022-08-19T13:50:28;23.30;99.90
1385;DHT22;686;51.080;13.716;2022-08-19T13:52:55;23.20;99.90
1385;DHT22;686;51.080;13.716;2022-08-19T13:55:21;23.20;99.90
1385;DHT22;686;51.080;13.716;2022-08-19T13:57:58;23.10;99.90
1385;DHT22;686;51.080;13.716;2022-08-19T14:00:27;23.00;99.90
1385;DHT22;686;51.080;13.716;2022-08-19T14:02:54;23.00;99.90
1385;DHT22;686;51.080;13.716;2022-08-19T14:05:21;23.00;99.90
1385;DHT22;686;51.080;13.716;2022-08-19T14:07:47;23.00;99.90
1385;DHT22;686;51.080;13.716;2022-08-19T14:10:14;23.00;99.90
1385;DHT22;686;51.080;13.716;2022-08-19T14:12:40;23.00;99.90
1385;DHT22;686;51.080;13.716;2022-08-19T14:15:08;23.00;99.90
1385;DHT22;686;51.080;13.716;2022-08-19T14:17:40;22.90;99.90
1385;DHT22;686;51.080;13.716;2022-08-19T14:20:08;22.80;99.90
1385;DHT22;686;51.080;13.716;2022-08-19T14:22:40;22.80;99.90
1385;DHT22;686;51.080;13.716;2022-08-19T14:25:08;22.90;99.90
1385;DHT22;686;51.080;13.716;2022-08-19T14:27:36;22.90;99.90
1385;DHT22;686;51.080;13.716;2022-08-19T14:30:03;22.90;99.90
1385;DHT22;686;51.080;13.716;2022-08-19T14:32:29;22.90;99.90
1385;DHT22;686;51.080;13.716;2022-08-19T14:34:55;22.80;99.90
1385;DHT22;686;51.080;13.716;2022-08-19T14:37:21;23.00;99.90
1385;DHT22;686;51.080;13.716;2022-08-19T14:39:48;23.00;99.90
1385;DHT22;686;51.080;13.716;2022-08-19T14:42:14;22.80;99.90
1385;DHT22;686;51.080;13.716;2022-08-19T14:44:41;22.80;99.90
1385;DHT22;686;51.080;13.716;2022-08-19T14:47:07;22.80;99.90
1385;DHT22;686;51.080;13.716;2022-08-19T14:49:34;22.90;99.90
1385;DHT22;686;51.080;13.716;2022-08-19T14:51:59;22.90;99.90
1385;DHT22;686;51.080;13.716;2022-08-19T14:54:25;22.80;99.90
1385;DHT22;686;51.080;13.716;2022-08-19T14:56:51;22.90;99.90
1385;DHT22;686;51.080;13.716;2022-08-19T14:59:17;23.00;99.90
1385;DHT22;686;51.080;13.716;2022-08-19T15:01:43;23.10;99.90
1385;DHT22;686;51.080;13.716;2022-08-19T15:04:09;23.00;99.90
1385;DHT22;686;51.080;13.716;2022-08-19T15:06:36;22.90;99.90
1385;DHT22;686;51.080;13.716;2022-08-19T15:09:01;22.70;99.90
1385;DHT22;686;51.080;13.716;2022-08-19T15:11:28;22.80;99.90
1385;DHT22;686;51.080;13.716;2022-08-19T15:13:56;22.80;99.90
1385;DHT22;686;51.080;13.716;2022-08-19T15:16:22;22.70;99.90
1385;DHT22;686;51.080;13.716;2022-08-19T15:18:53;22.70;99.90
1385;DHT22;686;51.080;13.716;2022-08-19T15:21:19;22.80;99.90
1385;DHT22;686;51.080;13.716;2022-08-19T15:23:47;22.80;99.90
1385;DHT22;686;51.080;13.716;2022-08-19T15:26:14;22.90;99.90
1385;DHT22;686;51.080;13.716;2022-08-19T15:28:40;23.00;99.90
1385;DHT22;686;51.080;13.716;2022-08-19T15:31:06;23.00;99.90
1385;DHT22;686;51.080;13.716;2022-08-19T15:33:33;23.00;99.90
1385;DHT22;686;51.080;13.716;2022-08-19T15:36:03;23.00;99.90
1385;DHT22;686;51.080;13.716;2022-08-19T15:38:30;23.10;99.90
1385;DHT22;686;51.080;13.716;2022-08-19T15:40:56;23.10;99.90
1385;DHT22;686;51.080;13.716;2022-08-19T15:43:41;23.20;99.90
1385;DHT22;686;51.080;13.716;2022-08-19T15:46:07;23.10;99.90
1385;DHT22;686;51.080;13.716;2022-08-19T15:48:33;23.00;99.90
1385;DHT22;686;51.080;13.716;2022-08-19T15:50:58;23.10;99.90
1385;DHT22;686;51.080;13.716;2022-08-19T15:53:24;23.00;99.90
1385;DHT22;686;51.080;13.716;2022-08-19T15:55:51;22.90;99.90
1385;DHT22;686;51.080;13.716;2022-08-19T15:58:16;22.80;99.90
1385;DHT22;686;51.080;13.716;2022-08-19T16:01:05;22.80;99.90
1385;DHT22;686;51.080;13.716;2022-08-19T16:03:51;23.00;99.90
1385;DHT22;686;51.080;13.716;2022-08-19T16:06:37;23.00;99.90
1385;DHT22;686;51.080;13.716;2022-08-19T16:09:03;23.00;99.90
1385;DHT22;686;51.080;13.716;2022-08-19T16:11:32;22.90;99.90
1385;DHT22;686;51.080;13.716;2022-08-19T16:13:59;23.00;99.90
1385;DHT22;686;51.080;13.716;2022-08-19T16:16:27;23.00;99.90
1385;DHT22;686;51.080;13.716;2022-08-19T16:18:55;23.00;99.90